RIPO2: Cimarron River Near Ripley, OK

                                SHEF ID:       RIPO2     Cimarron River near Ripley, OK
STATION TYPE:
Regulating: Stage = 20.00, Flow = 33370

PRECIP ELEVATION STAGE RIV-FLOW AIR-TEMP WIND-DIRWIND-SPEED REL-HUMID VOLTAGE BAT-LOAD
in ft ft cfs F deg mph % volt volt
Ccp-Rev Ccp-Rev Ccp-Rev Ccp-Rev Ccp-Rev Ccp-Rev Ccp-Rev Ccp-Rev Ccp-Rev Ccp-Rev
(America/Chicago)
04/26 00:00 0.00 ---- 9.18 1768 156.02 ---- ---- ---- ---- 12.82
04/26 01:00 0.00 ---- 9.10 1678 155.66 ---- ---- ---- ---- 12.70
04/26 02:00 0.00 ---- 9.02 1590 154.22 ---- ---- ---- ---- 12.61
04/26 03:00 0.00 ---- 8.95 1519 152.42 ---- ---- ---- ---- 12.57
04/26 04:00 0.00 ---- 8.88 1452 151.34 ---- ---- ---- ---- 12.57
04/26 05:00 0.00 ---- 8.82 1396 150.80 ---- ---- ---- ---- 12.57
04/26 06:00 0.00 ---- 8.76 1341 149.72 ---- ---- ---- ---- 12.54
04/26 07:00 0.00 ---- 8.71 1296 149.18 ---- ---- ---- ---- 12.53
04/26 08:00 0.00 ---- 8.65 1243 149.90 ---- ---- ---- ---- 12.50
04/26 09:00 0.00 ---- 8.61 1208 154.40 ---- ---- ---- ---- 12.68
04/26 10:00 0.00 ---- 8.55 1157 158.90 ---- ---- ---- ---- 13.16
04/26 11:00 0.00 ---- 8.49 1108 168.26 ---- ---- ---- ---- 13.62
04/26 12:00 0.00 ---- 8.37 1012 172.76 ---- ---- ---- ---- 13.59
04/26 13:00 0.00 ---- 8.33 980 179.42 ---- ---- ---- ---- 13.46
04/26 14:00 0.00 ---- 8.28 938 184.82 ---- ---- ---- ---- 13.40
04/26 15:00 0.00 ---- 8.24 904 187.70 ---- ---- ---- ---- 13.36
04/26 16:00 0.00 ---- 8.20 872 190.22 ---- ---- ---- ---- 13.34
04/26 17:00 0.00 ---- 8.19 864 192.56 ---- ---- ---- ---- 13.30
04/26 18:00 0.00 ---- 8.14 824 200.66 ---- ---- ---- ---- 13.28
04/26 19:00 0.00 ---- 8.15 832 195.62 ---- ---- ---- ---- 13.28
04/26 20:00 0.00 ---- 8.11 801 183.92 ---- ---- ---- ---- 13.26
04/26 21:00 0.00 ---- 8.10 794 175.46 ---- ---- ---- ---- 13.16
04/26 22:00 0.00 ---- 8.10 794 171.14 ---- ---- ---- ---- 12.93
04/26 23:00 0.00 ---- 8.10 794 169.88 ---- ---- ---- ---- 12.79
Data processed at Mon 27Apr2026 04:02 GMT

NOTICE: If you are parsing this page

Please convert to using our Data API. Starting early 2026 we will be migrating to: https://water.usace.army.mil with modern pages rendered in JavaScript. When this migration completes you will no longer be able to scrape this page! CWMSDataAPI (CDA)

Timeseries IDs (TSIDs)

TSIDs used from left to right in the data table
RIPL.Precip-Inc.Total.1Hour.1Hour.Ccp-Rev
RIPL.Stage.Inst.1Hour.0.Ccp-Rev
RIPL.Flow.Inst.1Hour.0.Ccp-Rev
RIPL.Temp-Air.Inst.1Hour.0.Ccp-Rev
RIPL.Dir-Wind.Inst.1Hour.0.Ccp-Rev
RIPL.Speed-Wind.Inst.1Hour.0.Ccp-Rev
RIPL.%-Humidity.Inst.1Hour.0.Ccp-Rev
RIPL.Volt-Battery.Inst.1Hour.0.Ccp-Rev
RIPL.Volt-Battery Load.Inst.1Hour.0.Ccp-Rev

                            

All information presented herein is the property of the government of the United States of America and may be revised or deleted at any time without prior notice. Dissemination of this information without the expressed written consent of the Public Affairs Office, Tulsa District U.S. Army Corps of Engineers is strictly prohibited. These data are gathered electronically and, as presented, have NOT undergone any form of quality control. These data are NOT guaranteed to be valid or correct.